Time;durP1;ratioP1;P1;durP2;ratioP2;P2;SDS_P1;SDS_P2;PMS_P1;PMS_P2;Temp;Humidity;BMP_temperature;BMP_pressure;BME280_temperature;BME280_humidity;BME280_pressure;Samples;Min_cycle;Max_cycle;Signal;HPM_P1;HPM_P2
2023/07/09 00:01:20;;;;;;;6.03;2.63;;;;;;;17.45;100.00;100902.97;4926990;29;20476;-74
2023/07/09 00:03:51;;;;;;;7.20;2.67;;;;;;;17.39;100.00;100909.16;4936234;28;20111;-73
2023/07/09 00:06:17;;;;;;;6.88;3.33;;;;;;;17.43;100.00;100768.22;4928989;29;20495;-72
2023/07/09 00:08:46;;;;;;;7.68;2.20;;;;;;;17.48;100.00;100751.38;4923378;29;20027;-73
2023/07/09 00:11:12;;;;;;;4.60;2.30;;;;;;;17.46;100.00;100793.94;4927168;29;20610;-74
2023/07/09 00:13:37;;;;;;;4.47;2.17;;;;;;;17.42;100.00;100893.41;4936338;28;20086;-73
2023/07/09 00:16:23;;;;;;;5.70;2.47;;;;;;;17.33;100.00;100901.88;4937533;28;20433;-73
2023/07/09 00:18:48;;;;;;;4.72;2.42;;;;;;;17.19;100.00;100988.16;4941290;28;20559;-73
2023/07/09 00:21:22;;;;;;;3.43;2.43;;;;;;;16.99;100.00;101049.25;4922285;29;20031;-73
2023/07/09 00:23:50;;;;;;;6.82;2.70;;;;;;;16.94;100.00;101100.25;4928370;29;20043;-74
2023/07/09 00:26:17;;;;;;;4.72;2.90;;;;;;;16.80;100.00;101083.97;4925847;28;20437;-73
2023/07/09 00:28:43;;;;;;;6.45;2.67;;;;;;;16.81;100.00;101157.59;4936611;28;20047;-73
2023/07/09 00:31:14;;;;;;;7.93;2.70;;;;;;;16.79;100.00;101157.81;4933766;28;20494;-73
2023/07/09 00:33:40;;;;;;;6.57;2.92;;;;;;;16.74;100.00;101179.09;4939719;28;20761;-73
2023/07/09 00:36:20;;;;;;;5.78;2.33;;;;;;;16.80;100.00;101217.97;4948282;28;20024;-74
2023/07/09 00:38:47;;;;;;;4.55;2.30;;;;;;;16.72;100.00;101229.69;4929264;29;20039;-74
2023/07/09 00:41:17;;;;;;;7.43;2.40;;;;;;;16.55;100.00;101249.78;4936014;29;20019;-73
2023/07/09 00:43:45;;;;;;;12.02;4.38;;;;;;;16.44;100.00;101262.75;4945812;28;20036;-74
2023/07/09 00:46:15;;;;;;;4.78;2.72;;;;;;;16.33;100.00;101300.94;4929909;29;20034;-73
2023/07/09 00:48:41;;;;;;;6.70;3.13;;;;;;;16.23;100.00;101338.13;4930293;29;20090;-73
2023/07/09 00:51:13;;;;;;;;;;;;;;;16.16;100.00;101350.66;4942029;28;20396;-73
2023/07/09 00:53:45;;;;;;;7.45;2.97;;;;;;;15.95;100.00;101360.28;4930256;29;19973;-73
2023/07/09 00:56:19;;;;;;;4.25;2.85;;;;;;;15.89;100.00;101414.84;4942080;28;20031;-73
2023/07/09 00:58:48;;;;;;;5.68;2.60;;;;;;;15.86;100.00;101447.53;4924647;29;20507;-73
2023/07/09 01:01:18;;;;;;;5.57;2.63;;;;;;;15.81;100.00;101450.75;4928700;29;20389;-73
2023/07/09 01:03:51;;;;;;;11.13;3.90;;;;;;;15.74;100.00;101454.34;4938775;28;20035;-73
2023/07/09 01:06:32;;;;;;;6.07;3.13;;;;;;;15.59;100.00;101463.19;4926530;29;20124;-73
2023/07/09 01:09:00;;;;;;;5.53;3.05;;;;;;;15.51;100.00;101484.75;4941175;28;20042;-74
2023/07/09 01:11:26;;;;;;;7.13;2.97;;;;;;;15.49;100.00;101497.53;4932249;29;20074;-73
2023/07/09 01:13:54;;;;;;;4.97;3.20;;;;;;;15.53;100.00;101512.31;4941626;28;20434;-73
2023/07/09 01:16:23;;;;;;;6.00;2.67;;;;;;;15.52;100.00;101499.03;4932698;29;20027;-73
2023/07/09 01:18:50;;;;;;;6.68;3.17;;;;;;;15.49;100.00;101478.69;4922996;29;20050;-73
2023/07/09 01:21:16;;;;;;;;;;;;;;;15.54;100.00;101519.38;4928814;29;20022;-73
2023/07/09 01:23:46;;;;;;;5.32;2.90;;;;;;;15.51;100.00;101489.28;4925857;29;19919;-74
2023/07/09 01:26:15;;;;;;;5.05;2.88;;;;;;;15.55;100.00;101482.53;4939157;28;20035;-73
2023/07/09 01:28:44;;;;;;;6.72;3.40;;;;;;;15.58;100.00;101464.19;4939060;28;20028;-73
2023/07/09 01:31:12;;;;;;;6.03;2.97;;;;;;;15.63;100.00;101453.69;4943915;28;20085;-73
2023/07/09 01:33:39;;;;;;;5.78;2.70;;;;;;;15.57;100.00;101459.81;4926515;28;20038;-73
2023/07/09 01:36:13;;;;;;;4.25;3.45;;;;;;;15.57;100.00;101486.72;4930732;29;20436;-73
2023/07/09 01:38:43;;;;;;;10.10;4.32;;;;;;;15.54;100.00;101524.75;4911503;29;20044;-73
2023/07/09 01:41:13;;;;;;;5.10;2.78;;;;;;;15.57;100.00;101492.13;4924998;29;20039;-73
2023/07/09 01:43:41;;;;;;;6.45;3.03;;;;;;;15.52;100.00;101501.72;4926090;29;20122;-74
2023/07/09 01:46:08;;;;;;;4.45;3.20;;;;;;;15.46;100.00;101505.13;4918129;29;20097;-73
2023/07/09 01:48:40;;;;;;;5.15;3.03;;;;;;;15.46;100.00;101505.97;4948603;28;20308;-74
2023/07/09 01:51:16;;;;;;;4.68;2.67;;;;;;;15.45;100.00;101504.28;4943869;28;20449;-73
2023/07/09 01:53:44;;;;;;;5.63;3.22;;;;;;;15.47;100.00;101557.91;4927643;29;20200;-74
2023/07/09 01:56:10;;;;;;;5.97;3.38;;;;;;;15.46;100.00;101554.41;4940764;28;20038;-73
2023/07/09 01:58:36;;;;;;;;;;;;;;;15.49;100.00;101548.66;4939856;28;20626;-73
2023/07/09 02:01:01;;;;;;;;;;;;;;;15.48;100.00;101560.44;4945496;28;20013;-73
2023/07/09 02:03:26;;;;;;;6.03;3.03;;;;;;;15.43;100.00;101560.13;4931072;29;19925;-73
2023/07/09 02:05:57;;;;;;;7.20;3.73;;;;;;;15.38;100.00;101586.72;4927105;29;20095;-74
2023/07/09 02:08:23;;;;;;;6.28;3.35;;;;;;;15.38;100.00;101584.00;4932059;29;20156;-73
2023/07/09 02:10:49;;;;;;;9.55;3.28;;;;;;;15.40;100.00;101563.16;4926423;28;20053;-74
2023/07/09 02:13:15;;;;;;;5.15;3.05;;;;;;;15.40;100.00;101561.34;4939232;29;20484;-72
2023/07/09 02:15:43;;;;;;;6.40;2.93;;;;;;;15.47;100.00;101560.63;4943420;28;20122;-73
2023/07/09 02:18:12;;;;;;;6.25;3.42;;;;;;;15.47;100.00;101561.44;4941041;28;20126;-73
2023/07/09 02:20:38;;;;;;;5.90;3.30;;;;;;;15.47;100.00;101550.69;4927327;29;20031;-73
2023/07/09 02:23:03;;;;;;;4.23;3.03;;;;;;;15.50;100.00;101542.28;4923021;29;20032;-73
2023/07/09 02:25:30;;;;;;;5.45;2.92;;;;;;;15.53;100.00;101543.78;4915481;29;20058;-73
2023/07/09 02:27:55;;;;;;;5.80;3.37;;;;;;;15.49;100.00;101548.66;4925977;29;20046;-73
2023/07/09 02:30:20;;;;;;;6.23;3.67;;;;;;;15.44;100.00;101534.91;4928629;29;20035;-73
2023/07/09 02:32:46;;;;;;;6.10;3.30;;;;;;;15.36;100.00;101522.31;4926003;29;20512;-73
2023/07/09 02:35:11;;;;;;;5.73;3.80;;;;;;;15.37;100.00;101533.91;4930457;29;20082;-73
2023/07/09 02:37:40;;;;;;;5.80;4.00;;;;;;;15.35;100.00;101549.41;4941130;28;20040;-73
2023/07/09 02:40:11;;;;;;;4.60;3.38;;;;;;;15.34;100.00;101524.34;4910826;29;20491;-73
2023/07/09 02:42:37;;;;;;;4.70;3.00;;;;;;;15.51;100.00;101476.66;4927488;29;20054;-74
2023/07/09 02:45:04;;;;;;;4.97;3.00;;;;;;;15.49;100.00;101443.72;4945387;28;20067;-74
2023/07/09 02:47:31;;;;;;;4.53;3.15;;;;;;;15.38;100.00;101430.66;4911850;29;20516;-74
2023/07/09 02:49:58;;;;;;;12.57;3.53;;;;;;;15.30;100.00;101454.94;4928901;29;20067;-74
2023/07/09 02:52:23;;;;;;;5.97;3.43;;;;;;;15.25;100.00;101481.53;4925192;29;20059;-73
2023/07/09 02:54:49;;;;;;;5.93;3.60;;;;;;;15.22;100.00;101504.22;4945117;29;20031;-74
2023/07/09 02:57:16;;;;;;;8.43;3.70;;;;;;;15.24;100.00;101534.50;4946788;28;20456;-73
2023/07/09 02:59:44;;;;;;;7.07;3.45;;;;;;;15.10;100.00;101509.16;4919431;29;20580;-74
2023/07/09 03:02:10;;;;;;;3.57;2.67;;;;;;;15.07;100.00;101504.09;4915807;29;20115;-74
2023/07/09 03:04:36;;;;;;;4.43;2.85;;;;;;;15.10;100.00;101508.28;4936323;29;20023;-74
2023/07/09 03:07:01;;;;;;;6.73;3.77;;;;;;;15.02;100.00;101513.72;4951877;28;20074;-74
2023/07/09 03:09:27;;;;;;;4.43;3.20;;;;;;;15.10;100.00;101522.59;4912356;29;20059;-74
2023/07/09 03:11:53;;;;;;;5.78;3.00;;;;;;;15.17;100.00;101483.25;4944976;29;20035;-74
2023/07/09 03:14:18;;;;;;;4.40;2.90;;;;;;;15.20;100.00;101457.84;4934203;29;20103;-74
2023/07/09 03:16:44;;;;;;;7.13;3.00;;;;;;;15.20;100.00;101463.22;4927960;29;20039;-73
2023/07/09 03:19:09;;;;;;;7.43;3.07;;;;;;;15.14;100.00;101455.84;4935661;28;20020;-74
2023/07/09 03:21:35;;;;;;;6.37;3.37;;;;;;;15.14;100.00;101474.66;4942482;29;20291;-74
2023/07/09 03:24:00;;;;;;;4.00;2.90;;;;;;;15.18;100.00;101484.06;4940405;29;20377;-73
2023/07/09 03:26:26;;;;;;;3.85;2.63;;;;;;;15.20;100.00;101485.56;4936999;29;20034;-73
2023/07/09 03:28:52;;;;;;;3.70;3.10;;;;;;;15.29;100.00;101472.06;4932521;28;20028;-75
2023/07/09 03:31:18;;;;;;;4.20;2.88;;;;;;;15.36;100.00;101449.69;4918251;29;20047;-73
2023/07/09 03:33:46;;;;;;;4.80;3.42;;;;;;;15.39;100.00;101416.19;4939120;29;20031;-73
2023/07/09 03:36:12;;;;;;;2.85;2.38;;;;;;;15.37;100.00;101416.38;4927581;29;20202;-75
2023/07/09 03:38:37;;;;;;;5.17;2.60;;;;;;;15.37;100.00;101442.44;4933619;28;20110;-74
2023/07/09 03:41:02;;;;;;;3.90;2.90;;;;;;;15.33;100.00;101463.47;4941957;29;20039;-74
2023/07/09 03:43:28;;;;;;;7.47;3.27;;;;;;;15.28;100.00;101492.75;4940878;28;20027;-74
2023/07/09 03:45:53;;;;;;;5.10;2.90;;;;;;;15.29;100.00;101533.94;4946559;29;20035;-74
2023/07/09 03:48:19;;;;;;;4.90;4.00;;;;;;;15.29;100.00;101561.69;4946711;28;20035;-74
2023/07/09 03:50:46;;;;;;;4.63;3.10;;;;;;;15.30;100.00;101549.91;4942974;28;20035;-73
2023/07/09 03:53:13;;;;;;;7.32;3.58;;;;;;;15.38;100.00;101530.19;4938722;28;20090;-76
2023/07/09 03:55:39;;;;;;;6.95;3.55;;;;;;;15.50;100.00;101546.81;4929135;29;20042;-73
2023/07/09 03:58:04;;;;;;;7.50;3.80;;;;;;;15.60;100.00;101494.44;4947227;28;20023;-74
2023/07/09 04:00:30;;;;;;;4.40;3.30;;;;;;;15.78;100.00;101486.13;4932533;28;20529;-74
2023/07/09 04:02:56;;;;;;;5.55;3.30;;;;;;;15.93;100.00;101445.78;4945173;28;20035;-75
2023/07/09 04:05:26;;;;;;;5.50;2.80;;;;;;;16.08;100.00;101391.13;4946214;29;20159;-75
2023/07/09 04:07:51;;;;;;;4.05;2.85;;;;;;;16.18;100.00;101337.84;4943063;28;20038;-74
2023/07/09 04:10:16;;;;;;;6.73;2.77;;;;;;;16.36;100.00;101316.72;4946687;29;20023;-74
2023/07/09 04:12:42;;;;;;;5.70;3.10;;;;;;;16.48;100.00;101310.88;4945173;28;20043;-75
2023/07/09 04:15:08;;;;;;;3.50;2.73;;;;;;;16.61;100.00;101305.66;4927402;29;20119;-74
2023/07/09 04:17:34;;;;;;;5.90;3.28;;;;;;;16.70;100.00;101296.44;4935344;28;20381;-74
2023/07/09 04:20:00;;;;;;;6.75;2.97;;;;;;;16.78;100.00;101277.44;4947479;28;20753;-73
2023/07/09 04:22:25;;;;;;;5.63;2.80;;;;;;;16.86;100.00;101309.72;4942631;28;20034;-73
2023/07/09 04:24:52;;;;;;;6.50;3.13;;;;;;;16.98;100.00;101331.63;4947457;28;20034;-74
2023/07/09 04:27:17;;;;;;;;;;;;;;;17.06;100.00;101276.72;4946517;28;20283;-74
2023/07/09 04:29:43;;;;;;;3.58;2.40;;;;;;;17.15;100.00;101267.47;4962098;28;19925;-74
2023/07/09 04:32:13;;;;;;;4.47;2.83;;;;;;;17.25;100.00;101245.56;4946968;28;20031;-73
2023/07/09 04:34:39;;;;;;;6.68;3.00;;;;;;;17.37;100.00;101248.56;4946164;29;20595;-74
2023/07/09 04:37:07;;;;;;;3.95;2.92;;;;;;;17.48;100.00;101234.53;4946139;29;20102;-73
2023/07/09 04:39:33;;;;;;;4.18;2.67;;;;;;;17.62;100.00;101276.78;4947315;28;20039;-74
2023/07/09 04:41:58;;;;;;;6.78;3.33;;;;;;;17.69;100.00;101274.97;4946875;28;20037;-74
2023/07/09 04:44:24;;;;;;;5.47;2.83;;;;;;;17.77;100.00;101290.22;4947108;28;20035;-74
2023/07/09 04:46:50;;;;;;;5.88;2.85;;;;;;;17.84;100.00;101230.84;4942832;28;20048;-73
2023/07/09 04:49:15;;;;;;;4.53;3.27;;;;;;;17.84;100.00;101209.25;4939553;28;20490;-74
2023/07/09 04:51:40;;;;;;;4.00;2.60;;;;;;;17.92;100.00;101207.22;4958480;28;20031;-73
2023/07/09 04:54:06;;;;;;;4.00;2.30;;;;;;;18.06;100.00;101194.63;4946868;28;20035;-74
2023/07/09 04:56:31;;;;;;;5.40;2.90;;;;;;;18.20;100.00;101206.31;4929590;28;20031;-74
2023/07/09 04:58:57;;;;;;;3.70;2.90;;;;;;;18.41;100.00;101175.63;4945483;28;20564;-75
2023/07/09 05:01:23;;;;;;;4.03;2.55;;;;;;;18.52;100.00;101079.59;4946773;28;20034;-74
2023/07/09 05:03:48;;;;;;;3.92;2.55;;;;;;;18.65;100.00;101051.69;4946891;28;20114;-74
2023/07/09 05:06:14;;;;;;;7.37;3.37;;;;;;;18.88;100.00;101090.00;4947114;28;20031;-74
2023/07/09 05:08:42;;;;;;;5.38;2.60;;;;;;;19.09;100.00;101034.00;4922063;29;20605;-74
2023/07/09 05:11:07;;;;;;;4.38;2.90;;;;;;;19.20;100.00;100887.19;4929597;29;20032;-73
2023/07/09 05:13:33;;;;;;;7.27;2.70;;;;;;;19.44;100.00;100919.97;4942087;29;20032;-74
2023/07/09 05:15:58;;;;;;;3.08;2.47;;;;;;;19.63;100.00;100913.59;4941500;28;20634;-74
2023/07/09 05:18:24;;;;;;;5.57;2.72;;;;;;;19.42;100.00;100725.25;4950043;28;20480;-73
2023/07/09 05:20:49;;;;;;;7.77;2.53;;;;;;;19.77;100.00;100796.00;4933285;29;20028;-74
2023/07/09 05:23:15;;;;;;;7.75;3.10;;;;;;;20.06;100.00;100847.84;4949802;28;20031;-73
2023/07/09 05:25:41;;;;;;;10.43;3.55;;;;;;;20.24;100.00;100777.41;4965168;28;20031;-73
2023/07/09 05:28:06;;;;;;;6.10;2.70;;;;;;;20.23;100.00;100648.34;4939957;28;20043;-73
2023/07/09 05:30:32;;;;;;;5.82;2.80;;;;;;;20.38;97.41;100565.78;4945303;28;20286;-74
2023/07/09 05:32:59;;;;;;;4.25;2.80;;;;;;;20.38;96.95;100588.28;4945263;29;20066;-73
2023/07/09 05:35:25;;;;;;;4.35;2.70;;;;;;;20.67;97.30;100713.28;4965104;28;20027;-73
2023/07/09 05:37:52;;;;;;;5.00;2.53;;;;;;;20.58;95.50;100630.56;4942073;28;20039;-74
2023/07/09 05:40:23;;;;;;;4.30;3.10;;;;;;;20.91;95.90;100727.78;4938014;29;20050;-74
2023/07/09 05:42:49;;;;;;;4.25;2.80;;;;;;;20.94;94.65;100693.91;4926102;29;20040;-74
2023/07/09 05:45:15;;;;;;;6.27;2.60;;;;;;;20.80;96.91;100799.09;4932535;29;20437;-73
2023/07/09 05:47:41;;;;;;;3.08;2.45;;;;;;;20.97;96.82;100846.22;4924164;29;20644;-74
2023/07/09 05:50:06;;;;;;;3.63;2.90;;;;;;;21.20;94.41;100774.09;4929045;29;20225;-74
2023/07/09 05:52:32;;;;;;;4.82;2.88;;;;;;;21.57;91.60;100747.63;4923959;29;20069;-73
2023/07/09 05:54:59;;;;;;;8.03;2.80;;;;;;;22.74;88.19;100773.81;4924656;29;20036;-74
2023/07/09 05:57:24;;;;;;;3.40;2.45;;;;;;;23.59;84.36;100687.59;4931408;29;20546;-74
2023/07/09 05:59:49;;;;;;;4.87;2.13;;;;;;;24.37;78.26;100424.81;4927087;29;20114;-74
2023/07/09 06:02:18;;;;;;;5.10;2.70;;;;;;;23.15;73.83;99873.34;4932216;29;20673;-74
2023/07/09 06:04:43;;;;;;;5.45;2.63;;;;;;;22.43;74.89;99988.25;4948386;29;20130;-74
2023/07/09 06:07:09;;;;;;;6.70;2.42;;;;;;;22.71;77.20;100341.66;4948236;29;20651;-74
2023/07/09 06:09:35;;;;;;;3.55;2.28;;;;;;;23.15;75.00;100238.19;4941439;28;20032;-74
2023/07/09 06:12:05;;;;;;;5.07;2.72;;;;;;;23.56;72.39;100148.63;4931159;29;20135;-74
2023/07/09 06:14:31;;;;;;;3.88;2.47;;;;;;;24.40;71.50;100294.16;4927684;28;20028;-74
2023/07/09 06:16:57;;;;;;;4.97;2.17;;;;;;;24.40;69.18;100141.38;4928914;29;20408;-73
2023/07/09 06:19:22;;;;;;;6.80;2.83;;;;;;;24.73;68.16;100138.47;4928750;28;20036;-74
2023/07/09 06:21:48;;;;;;;4.82;2.70;;;;;;;25.10;65.83;100014.50;4922756;28;20071;-74
2023/07/09 06:24:13;;;;;;;4.77;2.10;;;;;;;25.08;66.77;100216.88;4927893;28;20099;-73
2023/07/09 06:26:38;;;;;;;6.40;2.50;;;;;;;25.89;65.09;100272.63;4926611;28;20481;-74
2023/07/09 06:29:05;;;;;;;3.67;2.60;;;;;;;26.66;63.00;100225.88;4927383;29;20779;-74
2023/07/09 06:31:30;;;;;;;3.15;2.13;;;;;;;27.00;60.08;100072.56;4924784;28;20038;-74
2023/07/09 06:33:56;;;;;;;5.03;2.38;;;;;;;27.38;59.31;100085.66;4927274;29;20040;-74
2023/07/09 06:36:21;;;;;;;;;;;;;;;25.53;57.07;99327.16;4925621;29;20034;-74
2023/07/09 06:38:46;;;;;;;3.70;2.30;;;;;;;26.70;57.65;99887.47;4923487;29;19930;-74
2023/07/09 06:41:15;;;;;;;3.97;2.65;;;;;;;26.90;57.21;99900.94;4935158;28;20042;-74
2023/07/09 06:43:41;;;;;;;5.15;3.08;;;;;;;27.44;56.59;99981.16;4922426;29;20035;-74
2023/07/09 06:46:10;;;;;;;5.35;2.17;;;;;;;27.72;55.24;99923.72;4932372;29;20460;-74
2023/07/09 06:48:35;;;;;;;3.10;2.17;;;;;;;27.86;55.66;100028.03;4929625;29;20072;-74
2023/07/09 06:51:01;;;;;;;4.40;2.45;;;;;;;27.30;53.21;99608.38;4929522;29;20150;-75
2023/07/09 06:53:27;;;;;;;3.67;2.35;;;;;;;27.22;55.58;99967.97;4925224;29;20070;-74
2023/07/09 06:55:55;;;;;;;3.28;2.65;;;;;;;27.95;53.58;99908.31;4937316;28;20133;-74
2023/07/09 06:58:22;;;;;;;4.68;2.35;;;;;;;27.74;52.40;99650.03;4930210;29;20027;-74
2023/07/09 07:00:51;;;;;;;3.78;2.10;;;;;;;26.98;52.74;99592.72;4939461;28;20115;-74
2023/07/09 07:03:16;;;;;;;8.05;2.83;;;;;;;27.34;52.02;99625.81;4929972;28;20543;-75
2023/07/09 07:05:46;;;;;;;4.13;2.88;;;;;;;25.92;53.64;99347.06;4926279;29;20039;-74
2023/07/09 07:08:14;;;;;;;5.45;2.05;;;;;;;27.20;54.00;99901.69;4925981;29;20039;-74
2023/07/09 07:10:40;;;;;;;5.30;2.92;;;;;;;27.36;52.85;99755.13;4923053;29;20400;-74
2023/07/09 07:13:05;;;;;;;4.32;2.28;;;;;;;26.75;54.27;99756.00;4923884;29;20016;-74
2023/07/09 07:15:30;;;;;;;;;;;;;;;26.50;54.00;99653.09;4931219;29;20051;-74
2023/07/09 07:17:56;;;;;;;2.40;2.20;;;;;;;27.12;54.16;99929.72;4924684;29;19914;-74
2023/07/09 07:20:21;;;;;;;4.13;2.17;;;;;;;27.30;52.86;99837.72;4930219;28;20057;-74
2023/07/09 07:22:46;;;;;;;2.80;2.27;;;;;;;27.41;52.67;99797.28;4921964;29;20284;-73
2023/07/09 07:25:12;;;;;;;3.10;2.47;;;;;;;27.15;52.13;99601.19;4927611;29;20299;-74
2023/07/09 07:27:38;;;;;;;4.05;2.03;;;;;;;27.53;52.60;99880.72;4922769;29;20031;-73
2023/07/09 07:30:04;;;;;;;5.28;2.42;;;;;;;27.96;51.29;99792.03;4930006;29;20504;-73
2023/07/09 07:32:30;;;;;;;5.13;2.28;;;;;;;27.96;49.96;99547.91;4923606;29;20027;-74
2023/07/09 07:34:55;;;;;;;6.00;3.13;;;;;;;26.32;50.72;99211.53;4937185;28;20043;-73
2023/07/09 07:37:21;;;;;;;4.57;2.33;;;;;;;27.37;51.89;99753.22;4930656;29;20293;-73
2023/07/09 07:39:47;;;;;;;2.83;2.30;;;;;;;27.46;49.43;99451.88;4923122;29;20283;-73
2023/07/09 07:42:12;;;;;;;4.53;2.33;;;;;;;27.86;49.05;99540.72;4923717;29;20032;-73
2023/07/09 07:44:38;;;;;;;4.13;2.58;;;;;;;27.61;48.58;99404.94;4926196;29;20051;-74
2023/07/09 07:47:04;;;;;;;7.20;2.37;;;;;;;27.68;48.54;99443.72;4928808;29;20060;-73
2023/07/09 07:49:29;;;;;;;2.35;2.03;;;;;;;27.30;48.23;99241.22;4925514;29;20310;-73
2023/07/09 07:51:55;;;;;;;3.93;2.20;;;;;;;27.70;47.71;99282.47;4925734;29;20031;-73
2023/07/09 07:54:21;;;;;;;3.00;1.90;;;;;;;27.26;48.06;99192.84;4930290;29;20278;-73
2023/07/09 07:56:46;;;;;;;;;;;;;;;27.29;47.90;99277.94;4924763;29;20603;-73
2023/07/09 07:59:11;;;;;;;4.20;2.57;;;;;;;28.12;47.58;99582.13;4930048;29;19962;-73
2023/07/09 08:01:37;;;;;;;3.20;2.10;;;;;;;27.86;47.37;99375.34;4922037;29;20047;-73
2023/07/09 08:04:03;;;;;;;5.55;2.00;;;;;;;28.44;47.88;99662.63;4937462;28;20287;-73
2023/07/09 08:06:31;;;;;;;;;;;;;;;27.30;47.41;99158.19;4923931;29;20031;-73
2023/07/09 08:08:57;;;;;;;3.03;2.00;;;;;;;27.51;46.58;99103.69;4925270;29;20386;-73
2023/07/09 08:11:22;;;;;;;;;;;;;;;27.71;46.83;99300.53;4923892;29;20036;-73
2023/07/09 08:13:48;;;;;;;3.30;2.30;;;;;;;27.79;46.93;99335.44;4927986;29;19919;-73
2023/07/09 08:16:13;;;;;;;4.17;2.73;;;;;;;27.98;47.19;99496.31;4930461;29;20051;-73
2023/07/09 08:18:38;;;;;;;4.30;1.85;;;;;;;28.24;47.34;99580.75;4920855;29;20327;-73
2023/07/09 08:21:04;;;;;;;5.40;2.53;;;;;;;27.73;46.34;99226.19;4927372;29;20114;-73
2023/07/09 08:23:30;;;;;;;3.15;2.40;;;;;;;27.65;47.14;99290.81;4937456;28;20047;-73
2023/07/09 08:25:57;;;;;;;4.00;2.15;;;;;;;27.22;46.49;99071.31;4925369;29;20067;-73
2023/07/09 08:28:23;;;;;;;3.55;2.50;;;;;;;27.20;46.17;99027.78;4923410;29;20027;-73
2023/07/09 08:30:52;;;;;;;5.65;2.30;;;;;;;27.49;46.71;99232.03;4924741;29;20024;-73
2023/07/09 08:33:17;;;;;;;3.20;2.42;;;;;;;26.63;47.08;98905.22;4926535;29;20046;-73
2023/07/09 08:35:43;;;;;;;3.93;2.30;;;;;;;26.93;47.87;99284.19;4921217;29;20397;-72
2023/07/09 08:38:09;;;;;;;2.85;2.33;;;;;;;27.47;47.56;99465.28;4938197;28;20299;-74
2023/07/09 08:40:41;;;;;;;4.35;2.28;;;;;;;27.21;47.11;99174.59;4926022;29;20038;-74
2023/07/09 08:43:26;;;;;;;5.30;2.58;;;;;;;28.51;47.39;99750.09;4929746;29;20031;-73
2023/07/09 08:46:03;;;;;;;4.88;2.50;;;;;;;27.62;46.80;99296.91;4927926;29;20062;-73
2023/07/09 08:48:38;;;;;;;3.30;2.72;;;;;;;26.98;47.68;99206.59;4926966;29;20285;-73
2023/07/09 08:51:15;;;;;;;5.10;2.67;;;;;;;26.65;48.49;99242.34;4929043;28;20039;-73
2023/07/09 08:53:50;;;;;;;2.75;2.53;;;;;;;28.22;47.98;99806.09;4927276;29;20119;-74
2023/07/09 08:56:17;;;;;;;;;;;;;;;28.68;47.98;99915.06;4925222;29;20121;-74
2023/07/09 08:58:44;;;;;;;4.32;2.38;;;;;;;29.26;46.53;99875.16;4930440;29;20062;-73
2023/07/09 09:01:18;;;;;;;4.80;2.78;;;;;;;28.99;46.60;99713.91;4924441;29;20144;-73
2023/07/09 09:03:52;;;;;;;3.83;2.67;;;;;;;28.96;45.79;99545.03;4931393;29;20035;-74
2023/07/09 09:06:22;;;;;;;8.32;2.72;;;;;;;28.61;45.65;99343.53;4935811;28;20513;-74
2023/07/09 09:09:03;;;;;;;3.30;2.33;;;;;;;29.08;45.85;99689.25;4924208;29;20044;-74
2023/07/09 09:11:46;;;;;;;3.35;2.67;;;;;;;28.72;46.69;99615.94;4927249;28;20082;-74
2023/07/09 09:14:35;;;;;;;5.03;2.90;;;;;;;28.83;45.41;99458.81;4927486;29;20027;-73
2023/07/09 09:17:02;;;;;;;9.07;3.05;;;;;;;28.02;46.33;99239.44;4931420;29;20040;-73
2023/07/09 09:19:30;;;;;;;5.95;3.10;;;;;;;29.09;46.66;99826.34;4953572;28;20023;-74
2023/07/09 09:22:05;;;;;;;5.03;2.88;;;;;;;29.83;45.92;99889.28;4938533;28;20567;-73
2023/07/09 09:24:36;;;;;;;3.53;2.80;;;;;;;29.54;45.06;99660.63;4937887;28;20028;-73
2023/07/09 09:27:02;;;;;;;4.78;2.92;;;;;;;28.38;45.59;99180.84;4940028;29;20485;-73
2023/07/09 09:29:27;;;;;;;3.45;3.15;;;;;;;28.25;46.05;99343.66;4941760;28;20030;-73
2023/07/09 09:31:58;;;;;;;6.00;3.22;;;;;;;28.80;46.85;99714.06;4936527;29;20040;-73
2023/07/09 09:34:28;;;;;;;3.72;3.13;;;;;;;29.11;46.42;99669.41;4931044;28;20577;-73
2023/07/09 09:36:56;;;;;;;4.25;2.38;;;;;;;30.14;45.44;99984.88;4934961;29;20046;-74
2023/07/09 09:39:24;;;;;;;4.50;3.17;;;;;;;30.15;45.33;99934.19;4935397;28;20027;-73
2023/07/09 09:41:57;;;;;;;3.20;2.90;;;;;;;28.99;45.56;99469.41;4933716;29;20051;-73
2023/07/09 09:44:28;;;;;;;6.13;3.15;;;;;;;29.00;44.79;99397.63;4934231;28;20086;-73
2023/07/09 09:46:57;;;;;;;7.40;3.33;;;;;;;29.05;44.24;99245.59;4932752;29;20035;-73
2023/07/09 09:49:25;;;;;;;4.88;2.78;;;;;;;30.06;44.03;99666.38;4934370;28;20026;-74
2023/07/09 09:51:51;;;;;;;4.13;2.55;;;;;;;30.40;44.02;99742.78;4931840;29;20052;-73
2023/07/09 09:54:21;;;;;;;;;;;;;;;30.03;44.15;99557.75;4935550;28;20038;-73
2023/07/09 09:56:49;;;;;;;6.13;2.80;;;;;;;30.98;44.22;99983.31;4931531;29;20078;-73
2023/07/09 09:59:21;;;;;;;3.67;2.65;;;;;;;31.24;42.82;99756.53;4935158;28;20024;-73
2023/07/09 10:01:46;;;;;;;3.90;2.78;;;;;;;31.40;42.88;99741.16;4933603;29;20054;-73
2023/07/09 10:04:16;;;;;;;;;;;;;;;29.20;44.95;99244.34;4935986;28;20030;-74
2023/07/09 10:06:51;;;;;;;6.15;3.47;;;;;;;29.09;45.28;99402.41;4931103;29;19966;-74
2023/07/09 10:09:35;;;;;;;6.40;3.00;;;;;;;30.40;45.44;99952.03;4930240;29;20126;-73
2023/07/09 10:12:27;;;;;;;7.10;3.38;;;;;;;30.09;43.88;99492.38;4938427;29;20036;-73
2023/07/09 10:15:00;;;;;;;4.78;3.33;;;;;;;30.22;44.44;99601.47;4934176;29;20504;-73
2023/07/09 10:17:37;;;;;;;4.00;3.22;;;;;;;30.83;44.82;99939.63;4926737;29;20386;-73
2023/07/09 10:20:18;;;;;;;4.40;3.05;;;;;;;30.95;42.93;99609.16;4930489;29;20028;-73
2023/07/09 10:23:21;;;;;;;5.57;3.35;;;;;;;30.87;44.38;99809.19;4927507;29;20489;-73
2023/07/09 10:25:53;;;;;;;6.13;3.05;;;;;;;30.34;43.67;99509.22;4929388;29;20147;-73
2023/07/09 10:28:47;;;;;;;8.10;3.50;;;;;;;30.17;44.47;99543.84;4930362;28;20130;-73
2023/07/09 10:31:18;;;;;;;3.03;2.65;;;;;;;30.90;42.66;99556.97;4937132;28;20047;-73
2023/07/09 10:34:24;;;;;;;3.20;2.65;;;;;;;30.05;43.92;99397.84;4926291;29;20489;-73
2023/07/09 10:37:06;;;;;;;8.75;3.42;;;;;;;29.55;43.36;99118.66;4928635;29;20132;-74
2023/07/09 10:39:38;;;;;;;5.65;3.53;;;;;;;29.98;44.34;99568.09;4931625;29;20711;-73
2023/07/09 10:42:10;;;;;;;4.00;2.80;;;;;;;29.59;44.87;99413.81;4926077;29;20043;-74
2023/07/09 10:44:41;;;;;;;5.32;3.10;;;;;;;30.19;43.79;99469.22;4925526;29;20895;-73
2023/07/09 10:47:26;;;;;;;4.57;2.95;;;;;;;29.69;42.92;99052.50;4929017;29;20043;-73
2023/07/09 10:49:52;;;;;;;;;;;;;;;29.67;43.12;99116.06;4933521;29;20044;-73
2023/07/09 10:52:28;;;;;;;7.57;3.22;;;;;;;30.54;42.97;99522.34;4948650;28;19921;-73
2023/07/09 10:55:12;;;;;;;4.90;2.88;;;;;;;29.71;42.97;99165.69;4930525;29;20036;-74
2023/07/09 10:57:48;;;;;;;5.65;3.00;;;;;;;29.27;43.60;99118.25;4933019;29;20094;-74
2023/07/09 11:00:19;;;;;;;6.30;3.13;;;;;;;29.55;43.52;99250.63;4929403;29;20039;-73
2023/07/09 11:02:50;;;;;;;5.32;2.85;;;;;;;30.16;42.58;99335.81;4931794;29;20105;-74
2023/07/09 11:05:16;;;;;;;4.32;3.10;;;;;;;30.73;42.59;99515.69;4953427;28;20508;-73
2023/07/09 11:07:44;;;;;;;;;;;;;;;30.60;42.18;99396.28;4956152;28;20034;-74
2023/07/09 11:10:30;;;;;;;6.63;2.85;;;;;;;30.30;41.18;99041.13;4931721;29;19922;-74
2023/07/09 11:13:04;;;;;;;3.97;3.13;;;;;;;31.62;41.31;99653.81;4931192;28;20099;-74
2023/07/09 11:15:34;;;;;;;3.53;2.92;;;;;;;30.87;42.35;99524.59;4939325;28;20054;-73
2023/07/09 11:18:00;;;;;;;3.67;2.75;;;;;;;30.64;40.66;99064.81;4932491;29;20546;-74
2023/07/09 11:20:28;;;;;;;;;;;;;;;31.95;41.53;99747.81;4932894;28;20103;-74
2023/07/09 11:23:01;;;;;;;6.28;3.20;;;;;;;31.83;41.38;99568.34;4930470;29;19926;-74
2023/07/09 11:25:31;;;;;;;4.43;3.28;;;;;;;32.29;39.57;99431.31;4932517;28;20062;-74
2023/07/09 11:28:06;;;;;;;4.60;3.65;;;;;;;32.23;39.44;99333.28;4931705;29;20078;-74
2023/07/09 11:30:33;;;;;;;4.05;3.05;;;;;;;32.91;40.30;99758.41;4932804;28;20114;-73
2023/07/09 11:33:04;;;;;;;6.57;3.10;;;;;;;33.06;40.07;99688.75;4946124;28;20489;-73
2023/07/09 11:35:48;;;;;;;3.45;3.15;;;;;;;33.49;39.09;99678.38;4931721;28;20039;-74